Zellwood, Florida
Current Conditions -  °F | °C
As of 7:53 PM on Monday 22 Dec 2014 (Local Time) from KLEE Reporting Station
Haze Haze  
Wind Chill: 68°   Ceiling: 4100
Heat Index: 68°   Visibility: 5mi
Dew Point: 67°   Wind: 0mph
Humidity: 96%   Direction: NA
Pressure: 29.94"   Gusts: NA
Location:  28.73°N, 81.6°W
Report Text: KLEE 230053Z AUTO 00000KT 5SM BR BKN041 20/19 A2994 RMK AO2 SLP139 T02000194
Loading
Personal Weather Stations






























Interactive Weather Map New forecast layout! Learn more

10-Day Weather Forecast

Advertisements
Track Severe Weather on mobile